Philo, CA (95466)

4:33 PM PDT on July 25, 2016 (GMT -0700)
Vonarburg Vineyards | | Change Station

Elev 318 ft 39.11 °N, 123.50 °W | Updated 13 seconds ago

Clear
Clear
90.0 °F
Feels Like 87 °F
N
0.4
Wind Variable Wind from NNW
Gusts 2.5 mph

Today
High -- | Low -- °F
--% Chance of Precip.
Yesterday
High -- | Low -- °F
Precip. -- in
Pressure 29.82 in
Visibility 10.0 miles
Clouds Clear
Heat Index 87 °F
Dew Point 50 °F
Humidity 25%
Rainfall 0.00 in
Snow Depth Not available.
6:08 AM 8:31 PM
Waning Gibbous, 61% visible
METAR KUKI 252256Z AUTO 14012KT 10SM CLR 38/09 A2984 RMK AO2 SLP097 T03780089
Pressure 29.82 in
Visibility 10.0 miles
Clouds Clear
Heat Index 87 °F
Dew Point 50 °F
Humidity 25%
Rainfall 0.00 in
Snow Depth Not available.
6:08 AM 8:31 PM
Waning Gibbous, 61% visible
METAR KUKI 252256Z AUTO 14012KT 10SM CLR 38/09 A2984 RMK AO2 SLP097 T03780089

10-Day Weather Forecast

Almanac

Astronomy

Jul. 25, 2016 Rise Set
Actual Time
Civil Twilight
Nautical Twilight
Astronomical Twilight
Moon
Length of Visible Light
Length of Day
Tomorrow will be .
, % of the Moon is Illuminated

Today's Extremes

State Highs State Lows

Community

WunderPhotos

Upload Photos

1,927,445 photos uploaded!

WunderBlog® & News

Nearby

Air Quality

  Air Quality AQ Index Pollutant
Not available.

Snow Depth

Station Depth Elevation

Earthquake Activity

City Distance Mag. Time & Date
Minimum magnitude displayed is 2.5.

Coastal Water Temperatures

Place Temperature

Stations

Nearby Weather Stations

Station Location Temp. Windchill Dew Point Humidity Wind Precip. Elev Updated Type
                   

Watches & Warnings

There are currently no watches in effect.